createdAt,value
2023-02-21T00:00:27.813Z,71.94
2023-02-21T00:03:36.418Z,71.79
2023-02-21T00:06:44.784Z,71.17
2023-02-21T00:09:53.458Z,70.34
2023-02-21T00:13:01.782Z,68.41
2023-02-21T00:16:21.864Z,67.43
2023-02-21T00:19:29.828Z,67.01
2023-02-21T00:22:44.821Z,67.25
2023-02-21T00:25:52.867Z,68.04
2023-02-21T00:29:07.847Z,68.23
2023-02-21T00:32:09.864Z,68.92
2023-02-21T00:35:24.842Z,69.63
2023-02-21T00:38:26.862Z,70.39
2023-02-21T00:41:41.864Z,70.23
2023-02-21T00:44:43.671Z,70.11
2023-02-21T00:47:58.898Z,69.77
2023-02-21T00:51:15.294Z,69.91
2023-02-21T00:54:23.889Z,69.40
2023-02-21T00:57:38.844Z,68.12
2023-02-21T01:00:53.874Z,67.09
2023-02-21T01:04:09.089Z,66.49
2023-02-21T01:07:10.896Z,65.68
2023-02-21T01:10:31.828Z,63.35
2023-02-21T01:13:39.889Z,62.47
2023-02-21T01:17:01.967Z,61.91
2023-02-21T01:20:16.831Z,62.11
2023-02-21T01:23:25.519Z,61.81
2023-02-21T01:26:39.888Z,62.50
2023-02-21T01:29:54.882Z,62.28
2023-02-21T01:33:11.616Z,61.92
2023-02-21T01:36:19.848Z,62.10
2023-02-21T01:39:35.854Z,62.15
2023-02-21T01:42:37.691Z,61.82
2023-02-21T01:45:57.907Z,62.73
2023-02-21T01:49:05.910Z,62.36
2023-02-21T01:52:21.884Z,61.90
2023-02-21T01:55:23.866Z,62.23
2023-02-21T01:58:39.862Z,62.72
2023-02-21T02:02:04.860Z,62.92
2023-02-21T02:05:20.863Z,62.95
2023-02-21T02:08:34.876Z,62.76
2023-02-21T02:12:08.897Z,62.88
2023-02-21T02:15:38.007Z,62.51
2023-02-21T02:19:13.980Z,61.97
2023-02-21T02:22:52.340Z,60.99
2023-02-21T02:26:36.865Z,61.17
2023-02-21T02:30:15.021Z,61.68
2023-02-21T02:33:54.875Z,61.80
2023-02-21T02:37:36.869Z,62.05
2023-02-21T02:41:03.922Z,62.50
2023-02-21T02:44:33.853Z,62.94
2023-02-21T02:47:38.641Z,63.47
2023-02-21T02:50:57.965Z,63.26
2023-02-21T02:54:12.889Z,62.79
2023-02-21T02:57:14.774Z,62.45
2023-02-21T03:00:30.942Z,62.22
2023-02-21T03:04:05.917Z,62.14
2023-02-21T03:07:28.512Z,61.78
2023-02-21T03:10:51.899Z,61.70
2023-02-21T03:14:09.920Z,61.54
2023-02-21T03:17:29.902Z,61.91
2023-02-21T03:20:36.737Z,62.50
2023-02-21T03:23:54.957Z,61.52
2023-02-21T03:27:02.179Z,62.08
2023-02-21T03:30:18.946Z,62.00
2023-02-21T03:33:34.933Z,61.49
2023-02-21T03:36:38.528Z,61.99
2023-02-21T03:39:52.899Z,60.56
2023-02-21T03:42:56.505Z,60.50
2023-02-21T03:46:10.932Z,60.25
2023-02-21T03:49:18.937Z,60.36
2023-02-21T03:52:27.670Z,60.54
2023-02-21T03:55:41.887Z,60.17
2023-02-21T03:58:50.701Z,59.97
2023-02-21T04:02:06.962Z,60.37
2023-02-21T04:05:14.946Z,60.24
2023-02-21T04:08:23.574Z,60.15
2023-02-21T04:11:38.944Z,60.00
2023-02-21T04:14:46.959Z,59.40
2023-02-21T04:17:55.595Z,59.85
2023-02-21T04:21:05.909Z,59.79
2023-02-21T04:24:14.668Z,59.85
2023-02-21T04:27:22.937Z,60.35
2023-02-21T04:30:31.840Z,60.08
2023-02-21T04:33:39.954Z,60.48
2023-02-21T04:36:54.941Z,59.79
2023-02-21T04:39:56.689Z,60.02
2023-02-21T04:43:12.949Z,59.49
2023-02-21T04:46:21.516Z,59.72
2023-02-21T04:49:35.985Z,60.03
2023-02-21T04:52:37.991Z,59.70
2023-02-21T04:55:53.014Z,60.26
2023-02-21T04:58:55.150Z,60.52
2023-02-21T05:02:09.997Z,59.84
2023-02-21T05:05:20.076Z,60.19
2023-02-21T05:08:28.894Z,60.04
2023-02-21T05:11:44.013Z,60.00
2023-02-21T05:14:45.825Z,60.62
2023-02-21T05:18:00.986Z,60.50
2023-02-21T05:21:03.501Z,60.93
2023-02-21T05:24:18.000Z,59.76
2023-02-21T05:27:28.117Z,60.74
2023-02-21T05:30:37.054Z,60.95
2023-02-21T05:33:51.974Z,60.87
2023-02-21T05:37:07.013Z,61.04
2023-02-21T05:40:17.168Z,60.36
2023-02-21T05:43:28.129Z,60.72
2023-02-21T05:46:37.885Z,60.84
2023-02-21T05:49:46.991Z,61.06
2023-02-21T05:53:04.950Z,60.84
2023-02-21T05:56:14.555Z,61.07
2023-02-21T05:59:23.975Z,61.41
2023-02-21T06:02:39.337Z,61.12
2023-02-21T06:05:53.966Z,61.28
2023-02-21T06:09:02.017Z,60.94
2023-02-21T06:12:10.624Z,60.56
2023-02-21T06:15:18.968Z,60.07
2023-02-21T06:18:33.990Z,60.47
2023-02-21T06:21:43.061Z,60.27
2023-02-21T06:24:58.206Z,60.22
2023-02-21T06:28:06.885Z,60.54
2023-02-21T06:31:18.195Z,60.00
2023-02-21T06:34:34.997Z,59.88
2023-02-21T06:37:36.781Z,60.09
2023-02-21T06:40:52.016Z,59.67
2023-02-21T06:44:01.124Z,59.75
2023-02-21T06:47:16.063Z,59.72
2023-02-21T06:50:18.101Z,59.61
2023-02-21T06:53:33.059Z,60.15
2023-02-21T06:56:35.309Z,60.12
2023-02-21T06:59:50.131Z,60.12
2023-02-21T07:03:05.042Z,60.05
2023-02-21T07:06:14.020Z,60.40
2023-02-21T07:09:29.025Z,60.02
2023-02-21T07:12:31.386Z,60.39
2023-02-21T07:15:46.053Z,60.09
2023-02-21T07:18:48.253Z,60.53
2023-02-21T07:22:04.037Z,59.25
2023-02-21T07:25:13.100Z,59.62
2023-02-21T07:28:24.700Z,59.17
2023-02-21T07:31:55.243Z,58.26
2023-02-21T07:35:04.847Z,57.60
2023-02-21T07:38:13.060Z,57.03
2023-02-21T07:41:21.704Z,56.24
2023-02-21T07:44:30.061Z,56.30
2023-02-21T07:47:46.865Z,56.40
2023-02-21T07:50:57.178Z,56.03
2023-02-21T07:54:13.244Z,55.50
2023-02-21T07:57:16.954Z,56.08
2023-02-21T08:00:33.121Z,55.52
2023-02-21T08:03:41.587Z,55.64
2023-02-21T08:06:57.165Z,55.26
2023-02-21T08:10:06.053Z,53.71
2023-02-21T08:13:16.065Z,54.33
2023-02-21T08:16:24.178Z,55.65
2023-02-21T08:19:32.942Z,54.89
2023-02-21T08:22:44.041Z,54.09
2023-02-21T08:25:52.754Z,53.34
2023-02-21T08:29:01.084Z,53.93
2023-02-21T08:32:09.906Z,54.41
2023-02-21T08:35:21.132Z,54.30
2023-02-21T08:38:36.063Z,54.21
2023-02-21T08:41:41.982Z,54.20
2023-02-21T08:44:57.076Z,53.77
2023-02-21T08:47:59.494Z,55.15
2023-02-21T08:51:14.690Z,54.50
2023-02-21T08:54:30.109Z,55.04
2023-02-21T08:57:46.090Z,54.31
2023-02-21T09:00:48.320Z,54.68
2023-02-21T09:04:13.130Z,54.91
2023-02-21T09:07:24.125Z,54.74
2023-02-21T09:10:36.500Z,55.43
2023-02-21T09:13:45.074Z,55.07
2023-02-21T09:17:01.186Z,54.92
2023-02-21T09:20:17.198Z,55.34
2023-02-21T09:23:35.100Z,54.34
2023-02-21T09:26:37.938Z,54.20
2023-02-21T09:29:54.104Z,54.39
2023-02-21T09:32:57.039Z,56.11
2023-02-21T09:36:16.162Z,54.10
2023-02-21T09:39:32.151Z,54.64
2023-02-21T09:42:41.081Z,54.17
2023-02-21T09:45:54.107Z,54.20
2023-02-21T09:49:14.273Z,54.25
2023-02-21T09:52:31.738Z,54.36
2023-02-21T09:55:43.133Z,54.88
2023-02-21T09:58:58.155Z,54.00
2023-02-21T10:02:22.517Z,54.19
2023-02-21T10:06:11.103Z,53.82
2023-02-21T10:09:32.098Z,53.36
2023-02-21T10:12:54.113Z,52.94
2023-02-21T10:16:28.108Z,53.06
2023-02-21T10:19:47.068Z,52.68
2023-02-21T10:22:57.186Z,52.50
2023-02-21T10:26:18.153Z,52.28
2023-02-21T10:29:50.116Z,52.49
2023-02-21T10:33:01.169Z,51.99
2023-02-21T10:36:55.273Z,52.35
2023-02-21T10:40:23.165Z,52.61
2023-02-21T10:43:52.177Z,51.49
2023-02-21T10:47:36.113Z,51.48
2023-02-21T10:51:05.174Z,51.11
2023-02-21T10:54:23.551Z,51.28
2023-02-21T10:57:40.144Z,51.31
2023-02-21T11:01:02.159Z,51.55
2023-02-21T11:04:32.184Z,52.54
2023-02-21T11:07:49.179Z,51.46
2023-02-21T11:10:55.367Z,52.20
2023-02-21T11:14:31.516Z,51.39
2023-02-21T11:17:40.189Z,51.25
2023-02-21T11:21:00.145Z,51.26
2023-02-21T11:24:18.175Z,51.61
2023-02-21T11:27:20.274Z,51.30
2023-02-21T11:30:45.307Z,51.40
2023-02-21T11:34:07.147Z,51.55
2023-02-21T11:37:09.062Z,51.60
2023-02-21T11:40:34.153Z,51.66
2023-02-21T11:43:42.165Z,50.80
2023-02-21T11:46:58.678Z,51.84
2023-02-21T11:50:19.161Z,50.95
2023-02-21T11:53:37.653Z,38.88
2023-02-21T11:57:09.174Z,31.46
2023-02-21T12:00:26.345Z,28.78
2023-02-21T12:04:01.161Z,27.92
2023-02-21T12:07:27.251Z,26.81
2023-02-21T12:10:59.365Z,27.65
2023-02-21T12:14:31.236Z,25.38
2023-02-21T12:18:00.911Z,25.75
2023-02-21T12:21:34.152Z,25.66
2023-02-21T12:25:08.227Z,26.23
2023-02-21T12:28:34.202Z,26.98
2023-02-21T12:32:28.638Z,28.41
2023-02-21T12:36:01.208Z,29.43
2023-02-21T12:39:36.569Z,28.85
2023-02-21T12:43:05.251Z,27.09
2023-02-21T12:46:33.374Z,29.76
2023-02-21T12:49:58.913Z,28.34
2023-02-21T12:53:24.192Z,29.46
2023-02-21T13:00:46.505Z,31.02
2023-02-21T13:04:21.444Z,30.82
2023-02-21T13:07:38.247Z,31.59
2023-02-21T13:11:02.231Z,30.83
2023-02-21T13:14:11.479Z,30.94
2023-02-21T13:17:26.349Z,29.20
2023-02-21T13:20:43.237Z,29.97
2023-02-21T13:24:05.246Z,29.09
2023-02-21T13:27:34.244Z,31.89
2023-02-21T13:30:50.444Z,35.20
2023-02-21T13:34:06.243Z,34.82
2023-02-21T13:37:32.277Z,34.83
2023-02-21T13:40:49.761Z,39.17
2023-02-21T13:44:07.231Z,39.40
2023-02-21T13:47:16.290Z,46.42
2023-02-21T13:50:59.302Z,50.10
2023-02-21T13:54:19.281Z,50.71
2023-02-21T13:57:32.901Z,50.96
2023-02-21T14:01:00.293Z,51.22
2023-02-21T14:04:43.270Z,52.22
2023-02-21T14:08:03.851Z,52.07
2023-02-21T14:11:26.313Z,51.82
2023-02-21T14:14:39.278Z,52.32
2023-02-21T14:17:57.253Z,53.08
2023-02-21T14:21:27.390Z,53.51
2023-02-21T14:24:39.586Z,53.92
2023-02-21T14:27:54.745Z,54.25
2023-02-21T14:31:04.445Z,52.48
2023-02-21T14:34:21.269Z,52.55
2023-02-21T14:37:40.106Z,52.69
2023-02-21T14:41:11.289Z,52.41
2023-02-21T14:48:53.322Z,53.52
2023-02-21T14:52:34.544Z,53.49
2023-02-21T14:56:00.320Z,53.90
2023-02-21T14:59:28.895Z,54.27
2023-02-21T15:03:04.327Z,53.36
2023-02-21T15:06:18.608Z,54.18
2023-02-21T15:09:28.281Z,54.07
2023-02-21T15:13:00.909Z,54.91
2023-02-21T15:16:18.346Z,54.89
2023-02-21T15:19:38.301Z,55.12
2023-02-21T15:22:43.690Z,56.24
2023-02-21T15:26:02.266Z,55.86
2023-02-21T15:29:16.829Z,54.18
2023-02-21T15:32:32.490Z,54.62
2023-02-21T15:35:54.502Z,54.95
2023-02-21T15:39:21.801Z,54.71
2023-02-21T15:42:33.291Z,55.52
2023-02-21T15:45:51.227Z,55.25
2023-02-21T15:49:10.322Z,55.99
2023-02-21T15:52:27.281Z,56.48
2023-02-21T15:55:50.392Z,56.92
2023-02-21T15:59:10.752Z,57.38
2023-02-21T16:02:31.983Z,57.50
2023-02-21T16:05:47.381Z,58.04
2023-02-21T16:09:08.358Z,57.85
2023-02-21T16:12:30.016Z,58.03
2023-02-21T16:15:46.411Z,58.43
2023-02-21T16:19:02.374Z,58.38
2023-02-21T16:22:27.524Z,58.75
2023-02-21T16:25:36.333Z,59.11
2023-02-21T16:28:45.395Z,59.55
2023-02-21T16:31:56.374Z,59.23
2023-02-21T16:35:12.365Z,59.44
2023-02-21T16:38:23.347Z,59.61
2023-02-21T16:41:38.333Z,59.73
2023-02-21T16:44:53.368Z,59.66
2023-02-21T16:48:05.345Z,59.17
2023-02-21T16:51:20.369Z,59.17
2023-02-21T16:54:22.198Z,59.11
2023-02-21T16:57:37.347Z,59.01
2023-02-21T17:00:39.258Z,59.03
2023-02-21T17:03:54.487Z,59.22
2023-02-21T17:07:03.298Z,59.20
2023-02-21T17:10:18.345Z,59.44
2023-02-21T17:13:20.658Z,59.35
2023-02-21T17:16:35.368Z,59.26
2023-02-21T17:19:50.332Z,59.31
2023-02-21T17:22:59.393Z,59.09
2023-02-21T17:26:14.362Z,58.89
2023-02-21T17:29:16.673Z,58.92
2023-02-21T17:32:31.440Z,58.72
2023-02-21T17:35:33.643Z,58.87
2023-02-21T17:38:48.360Z,58.82
2023-02-21T17:41:51.834Z,58.73
2023-02-21T17:45:06.669Z,58.92
2023-02-21T17:48:08.729Z,58.71
2023-02-21T17:51:29.381Z,58.92
2023-02-21T17:54:31.813Z,58.55
2023-02-21T17:57:46.381Z,59.08
2023-02-21T18:00:48.582Z,59.25
2023-02-21T18:04:10.405Z,58.99
2023-02-21T18:07:12.392Z,59.19
2023-02-21T18:10:31.357Z,59.05
2023-02-21T18:13:33.267Z,59.20
2023-02-21T18:16:48.377Z,58.75
2023-02-21T18:20:06.646Z,58.83
2023-02-21T18:23:18.177Z,59.35
2023-02-21T18:26:28.454Z,59.83
2023-02-21T18:29:37.297Z,60.33
2023-02-21T18:32:53.473Z,60.68
2023-02-21T18:36:08.409Z,61.36
2023-02-21T18:39:19.074Z,61.82
2023-02-21T18:42:28.394Z,62.40
2023-02-21T18:45:37.252Z,62.60
2023-02-21T18:48:54.398Z,63.10
2023-02-21T18:51:56.662Z,63.02
2023-02-21T18:55:12.404Z,63.30
2023-02-21T18:58:14.874Z,63.46
2023-02-21T19:01:30.437Z,63.63
2023-02-21T19:04:39.825Z,63.79
2023-02-21T19:07:55.435Z,64.07
2023-02-21T19:11:13.666Z,64.13
2023-02-21T19:14:15.861Z,64.34
2023-02-21T19:17:30.473Z,64.77
2023-02-21T19:20:40.054Z,64.92
2023-02-21T19:23:54.453Z,64.89
2023-02-21T19:26:56.628Z,64.48
2023-02-21T19:30:12.493Z,64.81
2023-02-21T19:33:22.422Z,65.00
2023-02-21T19:36:31.864Z,65.08
2023-02-21T19:39:42.414Z,64.86
2023-02-21T19:42:51.379Z,64.91
2023-02-21T19:46:00.431Z,64.74
2023-02-21T19:49:11.786Z,64.85
2023-02-21T19:52:20.450Z,64.56
2023-02-21T19:55:39.455Z,64.19
2023-02-21T19:58:48.443Z,64.27
2023-02-21T20:02:05.470Z,64.49
2023-02-21T20:05:16.712Z,64.86
2023-02-21T20:08:32.478Z,65.48
2023-02-21T20:11:34.688Z,65.87
2023-02-21T20:14:49.434Z,66.24
2023-02-21T20:17:51.502Z,65.55
2023-02-21T20:21:08.490Z,65.17
2023-02-21T20:24:10.313Z,65.32
2023-02-21T20:27:27.467Z,63.68
2023-02-21T20:30:29.991Z,63.39
2023-02-21T20:33:45.446Z,63.44
2023-02-21T20:36:47.702Z,63.37
2023-02-21T20:40:03.623Z,63.44
2023-02-21T20:43:20.513Z,63.31
2023-02-21T20:46:23.450Z,62.64
2023-02-21T20:49:38.478Z,62.89
2023-02-21T20:52:47.473Z,62.81
2023-02-21T20:56:03.482Z,63.12
2023-02-21T20:59:08.388Z,65.46
2023-02-21T21:02:24.821Z,67.24
2023-02-21T21:05:40.505Z,68.58
2023-02-21T21:08:49.989Z,69.11
2023-02-21T21:11:58.594Z,69.39
2023-02-21T21:15:08.636Z,69.01
2023-02-21T21:18:17.500Z,69.10
2023-02-21T21:21:29.928Z,68.44
2023-02-21T21:24:38.528Z,66.53
2023-02-21T21:27:48.117Z,67.00
2023-02-21T21:30:57.567Z,66.58
2023-02-21T21:34:06.433Z,66.44
2023-02-21T21:37:16.521Z,65.84
2023-02-21T21:40:32.494Z,65.08
2023-02-21T21:43:34.706Z,64.95
2023-02-21T21:46:53.529Z,64.79
2023-02-21T21:49:55.513Z,65.10
2023-02-21T21:53:13.500Z,65.50
2023-02-21T21:56:23.765Z,64.64
2023-02-21T21:59:32.595Z,65.14
2023-02-21T22:02:56.551Z,64.86
2023-02-21T22:06:05.561Z,65.00
2023-02-21T22:09:21.527Z,65.34
2023-02-21T22:12:30.619Z,65.37
2023-02-21T22:15:41.953Z,65.55
2023-02-21T22:18:50.611Z,65.84
2023-02-21T22:22:00.361Z,65.68
2023-02-21T22:25:08.554Z,66.05
2023-02-21T22:28:23.520Z,65.82
2023-02-21T22:31:33.702Z,66.17
2023-02-21T22:34:42.510Z,66.20
2023-02-21T22:37:52.830Z,66.17
2023-02-21T22:41:01.525Z,66.38
2023-02-21T22:44:18.561Z,66.21
2023-02-21T22:47:33.546Z,66.18
2023-02-21T22:50:43.642Z,66.20
2023-02-21T22:54:06.603Z,66.62
2023-02-21T22:57:21.523Z,66.63
2023-02-21T23:00:40.554Z,66.89
2023-02-21T23:03:42.464Z,67.15
2023-02-21T23:06:59.542Z,67.63
2023-02-21T23:10:10.281Z,67.57
2023-02-21T23:13:28.545Z,68.17
2023-02-21T23:16:37.778Z,67.76
2023-02-21T23:19:52.553Z,67.68
2023-02-21T23:23:01.568Z,67.99
2023-02-21T23:26:15.533Z,68.10
2023-02-21T23:29:26.561Z,68.28
2023-02-21T23:32:41.582Z,68.43
2023-02-21T23:39:21.536Z,68.47
2023-02-21T23:42:29.614Z,68.39
2023-02-21T23:45:40.022Z,68.35
2023-02-21T23:48:48.907Z,68.30
2023-02-21T23:51:57.238Z,68.28
2023-02-21T23:55:12.609Z,68.44
2023-02-21T23:58:21.453Z,68.68
